Time;durP1;ratioP1;P1;durP2;ratioP2;P2;SDS_P1;SDS_P2;PMS_P1;PMS_P2;Temp;Humidity;BMP_temperature;BMP_pressure;BME280_temperature;BME280_humidity;BME280_pressure;Samples;Min_cycle;Max_cycle;Signal;HPM_P1;HPM_P2
2022/07/14 00:02:17;;;;;;;8.02;1.30;;;16.80;85.40;;;;;;4963699;28;20030;-86
2022/07/14 00:04:43;;;;;;;9.10;1.80;;;16.80;85.60;;;;;;4995907;28;20088;-87
2022/07/14 00:07:09;;;;;;;7.32;1.50;;;16.80;85.70;;;;;;4994776;28;20031;-86
2022/07/14 00:09:34;;;;;;;13.25;1.75;;;16.80;85.90;;;;;;4995954;28;20046;-86
2022/07/14 00:12:00;;;;;;;9.80;1.45;;;16.80;86.10;;;;;;4979846;28;20521;-87
2022/07/14 00:14:26;;;;;;;8.45;1.27;;;16.80;86.20;;;;;;4979574;28;20402;-88
2022/07/14 00:16:52;;;;;;;10.00;1.35;;;16.80;86.40;;;;;;4996657;28;20023;-87
2022/07/14 00:19:17;;;;;;;8.40;1.48;;;16.80;86.60;;;;;;4979652;28;20561;-88
2022/07/14 00:21:43;;;;;;;8.60;1.60;;;16.70;86.70;;;;;;4996970;28;20146;-87
2022/07/14 00:24:11;;;;;;;11.30;1.98;;;16.70;86.80;;;;;;4979630;28;20117;-87
2022/07/14 00:26:40;;;;;;;10.85;1.80;;;16.70;87.00;;;;;;4995783;28;20049;-87
2022/07/14 00:29:07;;;;;;;9.63;2.15;;;16.70;87.00;;;;;;4995455;28;20027;-87
2022/07/14 00:31:33;;;;;;;10.95;1.65;;;16.70;87.20;;;;;;5011825;28;20042;-87
2022/07/14 00:34:00;;;;;;;11.32;1.80;;;16.70;87.40;;;;;;4979315;28;20035;-86
2022/07/14 00:36:27;;;;;;;10.23;1.60;;;16.60;87.50;;;;;;5011649;28;20446;-88
2022/07/14 00:38:53;;;;;;;13.32;1.65;;;16.60;87.60;;;;;;4995481;28;20037;-87
2022/07/14 00:41:19;;;;;;;10.18;1.77;;;16.60;87.90;;;;;;5011619;28;20034;-87
2022/07/14 00:43:45;;;;;;;6.05;1.83;;;16.60;88.00;;;;;;4995418;28;20029;-87
2022/07/14 00:46:11;;;;;;;10.10;1.98;;;16.60;88.10;;;;;;4995268;28;20035;-87
2022/07/14 00:48:36;;;;;;;11.70;1.90;;;16.60;88.30;;;;;;4996312;28;20026;-87
2022/07/14 00:51:03;;;;;;;10.82;1.80;;;16.60;88.40;;;;;;4978933;28;20069;-86
2022/07/14 00:53:29;;;;;;;9.40;1.90;;;16.60;88.50;;;;;;4995433;28;20050;-87
2022/07/14 00:55:55;;;;;;;10.65;1.80;;;16.60;88.70;;;;;;4978569;28;20038;-86
2022/07/14 00:58:20;;;;;;;11.20;2.90;;;16.60;88.70;;;;;;5011235;28;20030;-88
2022/07/14 01:00:46;;;;;;;8.57;1.65;;;16.60;88.90;;;;;;4978450;28;20117;-87
2022/07/14 01:03:14;;;;;;;15.25;1.92;;;16.60;88.90;;;;;;4994892;28;20027;-86
2022/07/14 01:05:42;;;;;;;11.52;1.75;;;16.60;89.00;;;;;;4978926;28;20030;-87
2022/07/14 01:08:09;;;;;;;9.63;1.70;;;16.50;89.10;;;;;;4978713;28;20490;-87
2022/07/14 01:10:35;;;;;;;7.65;1.92;;;16.60;89.30;;;;;;4994711;28;20133;-87
2022/07/14 01:13:03;;;;;;;8.35;1.63;;;16.50;89.30;;;;;;4978455;28;20479;-87
2022/07/14 01:15:29;;;;;;;7.63;2.05;;;16.50;89.50;;;;;;4994114;28;20026;-87
2022/07/14 01:17:54;;;;;;;10.05;2.00;;;16.50;89.50;;;;;;4977705;28;20053;-87
2022/07/14 01:20:23;;;;;;;8.57;1.52;;;16.50;89.60;;;;;;4962126;28;20026;-87
2022/07/14 01:22:49;;;;;;;11.20;1.75;;;16.50;89.70;;;;;;4994637;28;20026;-88
2022/07/14 01:25:18;;;;;;;11.90;1.73;;;16.60;90.00;;;;;;4994456;28;20026;-86
2022/07/14 01:27:44;;;;;;;9.50;1.70;;;16.50;90.00;;;;;;4994300;28;20081;-88
2022/07/14 01:30:13;;;;;;;8.25;1.70;;;16.60;90.00;;;;;;4994118;28;20029;-87
2022/07/14 01:32:38;;;;;;;8.77;1.40;;;16.60;90.00;;;;;;4994222;28;20026;-87
2022/07/14 01:35:05;;;;;;;13.43;1.98;;;16.50;90.00;;;;;;5010475;28;20129;-88
2022/07/14 01:37:31;;;;;;;7.38;1.45;;;16.50;90.00;;;;;;4994089;28;20482;-87
2022/07/14 01:39:57;;;;;;;9.80;1.20;;;16.50;90.10;;;;;;4995317;28;20098;-87
2022/07/14 01:42:22;;;;;;;9.57;1.85;;;16.50;90.00;;;;;;4977844;28;20026;-87
2022/07/14 01:44:48;;;;;;;9.63;2.05;;;16.50;90.10;;;;;;4977925;28;20030;-87
2022/07/14 01:47:14;;;;;;;11.63;1.95;;;16.40;90.00;;;;;;4994056;28;20030;-87
2022/07/14 01:49:40;;;;;;;7.82;1.48;;;16.40;90.10;;;;;;4961669;28;20106;-87
2022/07/14 01:52:08;;;;;;;12.00;2.05;;;16.40;90.10;;;;;;4977644;28;20113;-87
2022/07/14 01:54:34;;;;;;;9.25;1.63;;;16.40;90.20;;;;;;4993900;28;20050;-87
2022/07/14 01:57:06;;;;;;;10.18;1.40;;;16.30;90.50;;;;;;4977832;28;20027;-88
2022/07/14 01:59:32;;;;;;;9.10;1.50;;;16.30;90.20;;;;;;4978320;28;20014;-87
2022/07/14 02:01:58;;;;;;;12.85;1.50;;;16.30;90.20;;;;;;4994134;28;20092;-87
2022/07/14 02:04:23;;;;;;;7.90;1.70;;;16.30;90.20;;;;;;4977716;28;20479;-87
2022/07/14 02:06:52;;;;;;;13.93;2.53;;;16.20;90.20;;;;;;4977666;28;20057;-80
2022/07/14 02:09:19;;;;;;;7.57;1.70;;;16.20;90.20;;;;;;4993211;28;20109;-80
2022/07/14 02:14:31;;;;;;;12.13;1.98;;;16.10;90.30;;;;;;4979975;28;20046;-79
2022/07/14 02:16:57;;;;;;;12.43;1.85;;;16.00;90.40;;;;;;4992970;28;20054;-79
2022/07/14 02:19:26;;;;;;;9.32;2.05;;;16.00;90.40;;;;;;4992921;28;20449;-79
2022/07/14 02:21:53;;;;;;;6.85;1.30;;;16.00;90.50;;;;;;4994346;28;20026;-80
2022/07/14 02:24:20;;;;;;;12.80;2.25;;;15.90;90.50;;;;;;4976793;28;20058;-79
2022/07/14 02:26:46;;;;;;;6.65;1.48;;;15.90;90.60;;;;;;4992869;28;20085;-80
2022/07/14 02:29:12;;;;;;;9.50;1.35;;;15.80;90.60;;;;;;4992844;28;20489;-80
2022/07/14 02:31:38;;;;;;;9.35;2.00;;;15.80;90.70;;;;;;4992517;28;20105;-80
2022/07/14 02:34:04;;;;;;;9.15;1.67;;;15.70;90.80;;;;;;4992979;28;20065;-79
2022/07/14 02:36:31;;;;;;;8.55;1.92;;;15.70;90.90;;;;;;4994001;28;20073;-80
2022/07/14 02:38:57;;;;;;;12.95;1.92;;;15.70;91.00;;;;;;4976514;28;20045;-79
2022/07/14 02:41:23;;;;;;;9.75;1.67;;;15.60;91.00;;;;;;4960541;28;20028;-80
2022/07/14 02:43:51;;;;;;;12.40;2.42;;;15.60;91.10;;;;;;4976512;28;20046;-80
2022/07/14 02:46:17;;;;;;;7.45;1.48;;;15.60;91.10;;;;;;4992723;28;20120;-79
2022/07/14 02:48:43;;;;;;;9.10;1.88;;;15.60;91.20;;;;;;4960479;28;20031;-79
2022/07/14 02:51:09;;;;;;;6.78;1.55;;;15.60;91.20;;;;;;4976813;28;20719;-79
2022/07/14 02:53:39;;;;;;;12.07;1.77;;;15.50;91.20;;;;;;4992485;28;20126;-79
2022/07/14 02:56:06;;;;;;;8.93;1.52;;;15.50;91.30;;;;;;4976841;28;20034;-79
2022/07/14 02:58:31;;;;;;;7.88;1.40;;;15.50;91.30;;;;;;4993933;28;20022;-80
2022/07/14 03:00:57;;;;;;;8.95;1.77;;;15.40;91.40;;;;;;4992585;28;20034;-79
2022/07/14 03:03:24;;;;;;;9.68;1.75;;;15.40;91.40;;;;;;4993864;28;20098;-80
2022/07/14 03:05:50;;;;;;;11.70;1.50;;;15.40;91.50;;;;;;4992632;28;20033;-79
2022/07/14 03:08:16;;;;;;;7.10;1.55;;;15.40;91.50;;;;;;4992770;28;20030;-79
2022/07/14 03:10:42;;;;;;;8.93;1.42;;;15.40;91.60;;;;;;4992605;28;20022;-80
2022/07/14 03:13:08;;;;;;;8.07;1.48;;;15.30;91.60;;;;;;4960030;28;20099;-79
2022/07/14 03:15:35;;;;;;;11.05;1.77;;;15.30;91.70;;;;;;4976213;28;20026;-79
2022/07/14 03:18:01;;;;;;;8.50;1.60;;;15.30;91.70;;;;;;4992300;28;20145;-79
2022/07/14 03:20:27;;;;;;;8.60;1.45;;;15.20;91.80;;;;;;4976286;28;20121;-79
2022/07/14 03:22:55;;;;;;;10.52;1.58;;;15.20;91.90;;;;;;4976212;28;20034;-80
2022/07/14 03:25:21;;;;;;;7.75;1.35;;;15.20;91.90;;;;;;4977337;28;20031;-80
2022/07/14 03:27:47;;;;;;;11.23;2.00;;;15.20;92.00;;;;;;4976314;28;20034;-80
2022/07/14 03:30:14;;;;;;;12.13;2.78;;;15.20;92.00;;;;;;4960108;28;20402;-80
2022/07/14 03:32:40;;;;;;;9.35;1.98;;;15.20;92.00;;;;;;4976512;28;20065;-79
2022/07/14 03:35:07;;;;;;;7.57;1.63;;;15.10;92.10;;;;;;4992183;28;20031;-80
2022/07/14 03:37:34;;;;;;;10.10;1.73;;;15.10;92.20;;;;;;4992449;28;20018;-79
2022/07/14 03:40:00;;;;;;;8.40;1.55;;;15.10;92.20;;;;;;5008551;28;20075;-79
2022/07/14 03:42:26;;;;;;;10.68;2.10;;;15.00;92.30;;;;;;4995243;28;20423;-79
2022/07/14 03:44:51;;;;;;;7.00;1.63;;;14.90;92.30;;;;;;4980338;28;20034;-79
2022/07/14 03:47:17;;;;;;;7.90;1.58;;;14.90;92.40;;;;;;4979699;28;20485;-79
2022/07/14 03:49:43;;;;;;;8.85;1.83;;;14.90;92.50;;;;;;4963538;28;20034;-80
2022/07/14 03:52:09;;;;;;;12.80;2.80;;;14.80;92.60;;;;;;4979793;28;20031;-80
2022/07/14 03:54:36;;;;;;;10.90;1.80;;;14.80;92.60;;;;;;4979603;28;20031;-80
2022/07/14 03:57:04;;;;;;;9.57;1.77;;;14.80;92.80;;;;;;4995737;28;20548;-79
2022/07/14 03:59:30;;;;;;;9.15;2.30;;;14.80;92.80;;;;;;4979829;28;20429;-79
2022/07/14 04:01:56;;;;;;;12.30;1.92;;;14.70;92.90;;;;;;4996128;28;20201;-87
2022/07/14 04:04:21;;;;;;;12.52;1.52;;;14.70;93.30;;;;;;4996215;28;20025;-87
2022/07/14 04:06:47;;;;;;;6.68;1.42;;;14.70;93.10;;;;;;4963849;28;20030;-87
2022/07/14 04:09:13;;;;;;;9.35;1.45;;;14.80;93.40;;;;;;5012291;28;20100;-87
2022/07/14 04:11:38;;;;;;;12.25;1.70;;;14.70;93.20;;;;;;4980137;28;20582;-87
2022/07/14 04:14:04;;;;;;;11.80;1.75;;;14.70;93.30;;;;;;4963898;28;20035;-87
2022/07/14 04:16:30;;;;;;;15.48;1.80;;;14.70;93.60;;;;;;4979376;28;20430;-87
2022/07/14 04:18:55;;;;;;;11.05;1.38;;;14.80;93.40;;;;;;4995413;28;20046;-86
2022/07/14 04:21:21;;;;;;;9.55;1.95;;;14.80;93.40;;;;;;4980088;28;20034;-88
2022/07/14 04:23:47;;;;;;;10.80;1.65;;;14.80;93.40;;;;;;4964550;28;20121;-86
2022/07/14 04:26:12;;;;;;;9.18;1.58;;;14.80;93.50;;;;;;4964611;28;20022;-87
2022/07/14 04:28:38;;;;;;;11.70;1.23;;;14.80;93.50;;;;;;4979489;28;20028;-87
2022/07/14 04:31:04;;;;;;;12.15;1.63;;;14.80;93.50;;;;;;5012098;28;20435;-87
2022/07/14 04:33:30;;;;;;;9.40;1.30;;;14.80;93.60;;;;;;4979164;28;20037;-86
2022/07/14 04:35:58;;;;;;;9.45;1.58;;;14.80;93.60;;;;;;4980963;28;20391;-85
2022/07/14 04:38:25;;;;;;;5.93;1.02;;;14.90;93.60;;;;;;5004606;28;20536;-86
2022/07/14 04:40:52;;;;;;;8.75;1.92;;;14.90;93.60;;;;;;4998704;28;20022;-86
2022/07/14 04:43:18;;;;;;;9.73;1.40;;;14.90;93.60;;;;;;4998382;28;20025;-85
2022/07/14 04:45:45;;;;;;;12.85;2.35;;;14.90;93.70;;;;;;4998185;28;20525;-80
2022/07/14 04:48:12;;;;;;;9.40;1.65;;;14.90;93.70;;;;;;4997967;28;20026;-82
2022/07/14 04:53:22;;;;;;;7.97;1.20;;;14.90;93.80;;;;;;5014188;28;20045;-82
2022/07/14 04:55:49;;;;;;;9.82;1.40;;;14.90;93.90;;;;;;4996589;28;20032;-82
2022/07/14 04:58:15;;;;;;;10.95;1.42;;;14.90;93.90;;;;;;4994615;28;20022;-81
2022/07/14 05:00:41;;;;;;;17.45;1.75;;;15.00;94.00;;;;;;4994348;28;20029;-82
2022/07/14 05:03:09;;;;;;;12.25;1.35;;;15.00;94.00;;;;;;4994265;28;20041;-83
2022/07/14 05:05:35;;;;;;;7.25;1.52;;;15.00;94.00;;;;;;4994439;28;20022;-81
2022/07/14 05:08:01;;;;;;;10.75;1.83;;;15.10;94.00;;;;;;4994552;28;20479;-82
2022/07/14 05:10:27;;;;;;;10.02;1.60;;;15.10;94.00;;;;;;4978620;28;20030;-82
2022/07/14 05:12:52;;;;;;;7.75;1.55;;;15.10;94.00;;;;;;4993736;28;20470;-81
2022/07/14 05:15:21;;;;;;;8.55;1.50;;;15.10;94.00;;;;;;4994090;28;20018;-83
2022/07/14 05:17:49;;;;;;;8.77;1.50;;;15.20;94.00;;;;;;4979760;28;20112;-90
2022/07/14 05:20:15;;;;;;;9.10;1.17;;;15.30;94.00;;;;;;4979429;28;20058;-91
2022/07/14 05:22:42;;;;;;;7.53;1.15;;;15.30;94.00;;;;;;4979145;28;20494;-88
2022/07/14 05:25:13;;;;;;;7.47;1.33;;;15.30;93.90;;;;;;4994614;28;20371;-88
2022/07/14 05:28:04;;;;;;;10.65;1.38;;;15.40;93.90;;;;;;4994467;28;20030;-88
2022/07/14 05:30:30;;;;;;;8.57;1.45;;;15.40;93.90;;;;;;4946757;28;20037;-89
2022/07/14 05:32:59;;;;;;;6.20;1.27;;;15.40;93.80;;;;;;4983726;28;20112;-89
2022/07/14 05:35:33;;;;;;;8.85;1.23;;;15.50;93.80;;;;;;4996021;28;20054;-87
2022/07/14 05:37:59;;;;;;;9.45;1.65;;;15.60;93.80;;;;;;4992627;28;20026;-89
2022/07/14 05:40:27;;;;;;;6.45;1.40;;;15.60;93.70;;;;;;4994535;28;20096;-88
2022/07/14 05:42:53;;;;;;;9.25;2.38;;;15.60;93.70;;;;;;4978226;28;20026;-88
2022/07/14 05:45:28;;;;;;;11.52;1.08;;;15.60;93.60;;;;;;4987366;28;20023;-88
2022/07/14 05:47:59;;;;;;;5.03;0.98;;;15.70;93.60;;;;;;4960123;28;20466;-88
2022/07/14 05:50:25;;;;;;;8.60;1.27;;;15.70;93.60;;;;;;4972118;28;20057;-88
2022/07/14 05:52:54;;;;;;;6.97;1.23;;;15.80;93.50;;;;;;4991653;28;20072;-88
2022/07/14 05:55:22;;;;;;;10.07;1.10;;;15.70;93.40;;;;;;4973706;28;20035;-88
2022/07/14 05:57:49;;;;;;;8.43;1.20;;;15.80;93.40;;;;;;4978080;28;20028;-88
2022/07/14 06:00:15;;;;;;;8.75;1.05;;;15.80;93.30;;;;;;4976976;28;20080;-88
2022/07/14 06:02:42;;;;;;;8.23;1.35;;;15.90;93.30;;;;;;4977986;28;20027;-88
2022/07/14 06:05:08;;;;;;;9.00;1.27;;;15.90;93.30;;;;;;4959242;28;20390;-89
2022/07/14 06:07:33;;;;;;;9.60;1.23;;;15.90;93.30;;;;;;4976417;28;20460;-88
2022/07/14 06:10:01;;;;;;;7.80;1.20;;;16.00;93.30;;;;;;4976378;28;20085;-89
2022/07/14 06:12:27;;;;;;;10.82;1.30;;;16.00;93.30;;;;;;4975973;28;20122;-88
2022/07/14 06:14:53;;;;;;;9.52;1.52;;;16.10;93.30;;;;;;4976931;28;20035;-88
2022/07/14 06:17:19;;;;;;;9.52;0.90;;;16.10;93.40;;;;;;4960772;28;20502;-88
2022/07/14 06:19:45;;;;;;;10.40;1.30;;;16.10;93.30;;;;;;4976800;28;20039;-87
2022/07/14 06:22:11;;;;;;;7.88;1.20;;;16.20;93.30;;;;;;4987510;28;20386;-88
2022/07/14 06:24:38;;;;;;;8.43;1.20;;;16.30;93.20;;;;;;5017216;28;20056;-85
2022/07/14 06:27:03;;;;;;;6.03;1.10;;;16.30;93.20;;;;;;4996582;28;20084;-84
2022/07/14 06:29:29;;;;;;;4.68;0.90;;;16.30;93.10;;;;;;5012663;28;20026;-86
2022/07/14 06:31:55;;;;;;;8.82;1.00;;;16.40;93.10;;;;;;4996776;28;20030;-85
2022/07/14 06:34:25;;;;;;;12.43;1.58;;;16.50;93.00;;;;;;4996647;28;20461;-85
2022/07/14 06:36:51;;;;;;;8.05;1.17;;;16.50;93.00;;;;;;5012613;28;20045;-84
2022/07/14 06:39:17;;;;;;;8.05;1.20;;;16.60;92.90;;;;;;4996152;28;20486;-86
2022/07/14 06:41:42;;;;;;;6.30;1.08;;;16.60;92.70;;;;;;4996619;28;20104;-85
2022/07/14 06:44:08;;;;;;;9.68;1.20;;;16.70;92.60;;;;;;5030467;28;20137;-87
2022/07/14 06:46:37;;;;;;;6.90;1.23;;;16.70;92.40;;;;;;5014942;28;20034;-84
2022/07/14 06:49:02;;;;;;;6.97;1.25;;;16.80;92.30;;;;;;5013289;28;20022;-84
2022/07/14 06:51:28;;;;;;;9.80;1.10;;;16.80;92.20;;;;;;5013005;28;20133;-84
2022/07/14 06:53:54;;;;;;;8.45;0.90;;;16.90;92.00;;;;;;4996959;28;20103;-86
2022/07/14 06:56:20;;;;;;;10.20;0.95;;;17.00;91.90;;;;;;4996726;28;20030;-86
2022/07/14 06:58:45;;;;;;;7.05;1.17;;;17.00;91.80;;;;;;4996208;28;20076;-86
2022/07/14 07:01:11;;;;;;;8.73;0.98;;;17.10;91.80;;;;;;5012646;28;20022;-85
2022/07/14 07:03:37;;;;;;;11.05;1.80;;;17.10;91.70;;;;;;5028878;28;20092;-85
2022/07/14 07:08:46;;;;;;;;;;;17.30;91.60;;;;;;4999523;28;20037;-86
2022/07/14 07:11:13;;;;;;;7.93;0.82;;;17.30;91.40;;;;;;4996132;28;19910;-85
2022/07/14 07:13:39;;;;;;;5.57;1.17;;;17.40;91.70;;;;;;4996034;28;20554;-86
2022/07/14 07:16:05;;;;;;;6.88;0.98;;;17.40;91.20;;;;;;5014119;28;20104;-86
2022/07/14 07:18:32;;;;;;;7.28;1.30;;;17.50;91.20;;;;;;5015961;28;20445;-84
2022/07/14 07:20:58;;;;;;;5.55;0.88;;;17.60;91.10;;;;;;5032835;28;20075;-84
2022/07/14 07:23:25;;;;;;;7.63;0.73;;;17.60;90.90;;;;;;4984203;28;20030;-85
2022/07/14 07:25:53;;;;;;;4.68;0.85;;;17.70;90.70;;;;;;5016942;28;20490;-86
2022/07/14 07:28:19;;;;;;;5.88;0.70;;;17.70;90.50;;;;;;4999762;28;20494;-85
2022/07/14 07:30:45;;;;;;;8.02;0.98;;;17.80;90.40;;;;;;4999713;28;20033;-81
2022/07/14 07:33:11;;;;;;;4.55;1.10;;;17.90;90.20;;;;;;4999332;28;20030;-81
2022/07/14 07:35:36;;;;;;;4.60;0.60;;;18.00;90.00;;;;;;5015485;28;20060;-82
2022/07/14 07:38:02;;;;;;;4.45;0.60;;;18.00;89.70;;;;;;4999874;28;20022;-81
2022/07/14 07:40:28;;;;;;;6.38;0.98;;;18.10;89.40;;;;;;4999256;28;20478;-81
2022/07/14 07:42:53;;;;;;;4.03;0.70;;;18.10;89.10;;;;;;4999191;28;20418;-81
2022/07/14 07:45:19;;;;;;;6.53;0.80;;;18.20;88.90;;;;;;5015634;28;20072;-81
2022/07/14 07:47:45;;;;;;;10.10;1.02;;;18.30;88.50;;;;;;4999070;28;20026;-81
2022/07/14 07:50:11;;;;;;;5.88;1.52;;;18.30;88.20;;;;;;4999345;28;20025;-81
2022/07/14 07:52:37;;;;;;;4.75;0.60;;;18.40;87.80;;;;;;5015372;28;20075;-81
2022/07/14 07:55:09;;;;;;;5.95;0.88;;;18.40;87.30;;;;;;5031833;28;20072;-81
2022/07/14 07:57:35;;;;;;;2.90;0.55;;;18.50;86.90;;;;;;5015187;28;20029;-81
2022/07/14 08:00:01;;;;;;;2.70;0.60;;;18.50;86.70;;;;;;4999271;28;20026;-82
2022/07/14 08:02:27;;;;;;;5.95;1.20;;;18.60;86.30;;;;;;4998972;28;20037;-81
2022/07/14 08:04:53;;;;;;;4.45;0.60;;;18.60;86.10;;;;;;4982508;28;20414;-82
2022/07/14 08:07:18;;;;;;;5.90;0.70;;;18.70;85.90;;;;;;4998860;28;20116;-81
2022/07/14 08:09:45;;;;;;;5.20;0.82;;;18.80;85.70;;;;;;5014958;28;20022;-82
2022/07/14 08:12:10;;;;;;;8.10;1.02;;;18.80;85.40;;;;;;4999328;28;20026;-82
2022/07/14 08:14:48;;;;;;;6.50;1.05;;;18.90;85.20;;;;;;4998832;28;20026;-82
2022/07/14 08:17:14;;;;;;;4.35;0.82;;;18.90;84.90;;;;;;5014969;28;20022;-81
2022/07/14 08:19:40;;;;;;;9.48;1.05;;;19.00;84.60;;;;;;5031436;28;20124;-81
2022/07/14 08:22:06;;;;;;;6.90;0.70;;;19.00;84.10;;;;;;5016388;28;20057;-81
2022/07/14 08:24:32;;;;;;;6.32;0.98;;;19.10;83.70;;;;;;4998534;28;20026;-81
2022/07/14 08:26:58;;;;;;;4.93;0.60;;;19.10;83.50;;;;;;4999084;28;20030;-80
2022/07/14 08:29:23;;;;;;;3.63;0.57;;;19.20;83.10;;;;;;5013730;28;20537;-81
2022/07/14 08:31:49;;;;;;;4.85;0.75;;;19.30;82.80;;;;;;5031421;28;20037;-82
2022/07/14 08:34:15;;;;;;;4.05;0.60;;;19.40;82.50;;;;;;4998644;28;20080;-81
2022/07/14 08:36:41;;;;;;;4.07;0.85;;;19.40;82.10;;;;;;5014522;28;20033;-81
2022/07/14 08:39:08;;;;;;;4.85;0.77;;;19.40;81.90;;;;;;4982088;28;20028;-81
2022/07/14 08:41:35;;;;;;;3.05;0.55;;;19.50;81.90;;;;;;4998656;28;20057;-81
2022/07/14 08:44:02;;;;;;;5.22;0.70;;;19.50;81.60;;;;;;5014829;28;20370;-81
2022/07/14 08:46:28;;;;;;;5.45;0.50;;;19.60;81.50;;;;;;5016218;28;20033;-80
2022/07/14 08:48:55;;;;;;;4.32;1.02;;;19.60;81.80;;;;;;4998465;28;20433;-80
2022/07/14 08:51:20;;;;;;;6.18;0.95;;;19.70;81.00;;;;;;4998572;28;20022;-81
2022/07/14 08:53:47;;;;;;;3.55;0.70;;;19.70;80.60;;;;;;5014597;28;20496;-80
2022/07/14 08:56:13;;;;;;;6.13;0.52;;;19.80;80.20;;;;;;5014501;28;20030;-81
2022/07/14 08:58:44;;;;;;;7.35;0.60;;;19.80;79.90;;;;;;5014334;28;20018;-81
2022/07/14 09:01:10;;;;;;;5.13;0.60;;;19.90;79.70;;;;;;4999054;28;20026;-81
2022/07/14 09:03:36;;;;;;;2.72;0.60;;;20.00;79.20;;;;;;5014152;28;20026;-80
2022/07/14 09:06:04;;;;;;;3.00;0.82;;;20.00;78.50;;;;;;5014084;28;20081;-81
2022/07/14 09:08:38;;;;;;;4.32;0.73;;;20.00;77.90;;;;;;5014234;28;20121;-80
2022/07/14 09:11:17;;;;;;;4.53;0.63;;;20.10;77.20;;;;;;5013912;28;20036;-81
2022/07/14 09:13:43;;;;;;;2.40;0.50;;;20.20;76.40;;;;;;5014508;28;20025;-80
2022/07/14 09:16:16;;;;;;;4.70;0.70;;;20.20;75.90;;;;;;5015117;28;20032;-80
2022/07/14 09:18:42;;;;;;;2.70;0.60;;;20.30;75.60;;;;;;5013749;28;20393;-81
2022/07/14 09:21:20;;;;;;;4.68;0.60;;;20.30;75.50;;;;;;5013873;28;20368;-80
2022/07/14 09:23:46;;;;;;;3.50;0.55;;;20.40;75.00;;;;;;4997692;28;20022;-80
2022/07/14 09:26:19;;;;;;;3.72;0.68;;;20.50;74.60;;;;;;5013882;28;20092;-80
2022/07/14 09:28:50;;;;;;;6.60;0.73;;;20.50;73.90;;;;;;4997341;28;20501;-80
2022/07/14 09:31:22;;;;;;;3.03;0.40;;;20.60;73.70;;;;;;5030029;28;20101;-81
2022/07/14 09:33:56;;;;;;;4.55;0.70;;;20.70;73.40;;;;;;5022314;28;20058;-82
2022/07/14 09:36:31;;;;;;;3.08;0.50;;;20.70;73.50;;;;;;4986875;28;20030;-80
2022/07/14 09:39:03;;;;;;;3.33;0.60;;;20.80;72.40;;;;;;4992563;28;20036;-81
2022/07/14 09:41:49;;;;;;;4.28;0.50;;;20.90;72.00;;;;;;4993717;28;20378;-85
2022/07/14 09:44:19;;;;;;;2.90;0.57;;;21.00;71.70;;;;;;5009362;28;20038;-84
2022/07/14 09:46:54;;;;;;;5.90;0.60;;;21.10;71.30;;;;;;4994777;28;20022;-85
2022/07/14 09:49:28;;;;;;;6.13;0.50;;;21.20;70.80;;;;;;4993667;28;20029;-85
2022/07/14 09:51:55;;;;;;;;;;;21.30;70.70;;;;;;4994177;28;20030;-86
2022/07/14 09:54:40;;;;;;;1.52;0.40;;;21.30;70.50;;;;;;4993576;28;19987;-86
2022/07/14 09:57:18;;;;;;;2.45;0.50;;;21.50;70.20;;;;;;4994862;28;20101;-84
2022/07/14 09:59:48;;;;;;;2.97;0.55;;;21.60;69.70;;;;;;4994002;28;20031;-84
2022/07/14 10:02:21;;;;;;;3.22;0.60;;;21.70;69.20;;;;;;4993402;28;20053;-84
2022/07/14 10:04:47;;;;;;;2.72;0.77;;;21.80;68.70;;;;;;4993480;28;20023;-84
2022/07/14 10:07:15;;;;;;;3.88;0.45;;;21.90;68.40;;;;;;4993979;28;20018;-83
2022/07/14 10:10:10;;;;;;;2.88;0.30;;;21.90;67.90;;;;;;4993843;28;20108;-85
2022/07/14 10:12:37;;;;;;;1.73;0.50;;;22.10;66.70;;;;;;4993771;28;20038;-84
2022/07/14 10:15:06;;;;;;;3.60;0.70;;;22.10;66.50;;;;;;4984609;28;20398;-83
2022/07/14 10:17:34;;;;;;;3.75;0.47;;;22.20;66.10;;;;;;4958405;28;20026;-84
2022/07/14 10:20:01;;;;;;;3.67;0.52;;;22.30;65.60;;;;;;4973880;28;20129;-85
2022/07/14 10:22:28;;;;;;;3.55;0.40;;;22.40;65.20;;;;;;4976205;28;20085;-84
2022/07/14 10:24:54;;;;;;;4.90;0.40;;;22.40;64.70;;;;;;4974997;28;20051;-85
2022/07/14 10:27:21;;;;;;;2.90;0.50;;;22.40;64.20;;;;;;4958192;28;20058;-84
2022/07/14 10:29:57;;;;;;;1.30;0.30;;;22.60;63.70;;;;;;4974760;28;20498;-83
2022/07/14 10:32:33;;;;;;;2.33;0.47;;;22.60;62.50;;;;;;4974738;28;20054;-85
2022/07/14 10:35:44;;;;;;;4.88;0.50;;;22.70;62.00;;;;;;4974977;28;20026;-85
2022/07/14 10:38:50;;;;;;;2.72;0.30;;;22.80;61.40;;;;;;4983953;28;20445;-81
2022/07/14 10:41:46;;;;;;;2.55;0.30;;;22.90;60.90;;;;;;4994081;28;20057;-82
2022/07/14 10:44:18;;;;;;;1.90;0.25;;;23.10;60.50;;;;;;4992487;28;20478;-82
2022/07/14 10:46:46;;;;;;;1.83;0.40;;;23.30;60.40;;;;;;4993335;28;20022;-82
2022/07/14 10:49:13;;;;;;;1.58;0.50;;;23.40;60.00;;;;;;4993108;28;20474;-82
2022/07/14 10:51:52;;;;;;;2.72;0.40;;;23.60;59.60;;;;;;4992071;28;20022;-81
2022/07/14 10:54:29;;;;;;;2.92;0.40;;;23.70;59.00;;;;;;4992583;28;20109;-81
2022/07/14 10:57:09;;;;;;;2.53;0.40;;;23.90;58.80;;;;;;4993937;28;20019;-83
2022/07/14 10:59:37;;;;;;;5.35;0.50;;;24.00;58.50;;;;;;4992623;28;20029;-82
2022/07/14 11:02:14;;;;;;;1.80;0.40;;;24.10;58.50;;;;;;4993219;28;20019;-82
2022/07/14 11:07:51;;;;;;;3.60;0.43;;;24.40;57.40;;;;;;4993664;28;20391;-82
2022/07/14 11:10:19;;;;;;;1.88;0.40;;;24.40;57.10;;;;;;4992583;28;20033;-82
2022/07/14 11:13:15;;;;;;;4.55;0.60;;;24.60;57.00;;;;;;4992330;28;20449;-82
2022/07/14 11:15:59;;;;;;;4.40;0.50;;;24.70;56.20;;;;;;4991048;28;20046;-83
2022/07/14 11:18:28;;;;;;;2.67;0.40;;;24.80;56.00;;;;;;4993474;28;20050;-82
2022/07/14 11:21:00;;;;;;;2.10;0.35;;;25.00;56.10;;;;;;4992568;28;20030;-81
2022/07/14 11:23:32;;;;;;;5.35;0.80;;;25.20;55.70;;;;;;4994237;28;20023;-84
2022/07/14 11:26:02;;;;;;;4.75;0.40;;;25.40;55.50;;;;;;4992843;28;20053;-86
2022/07/14 11:28:31;;;;;;;2.08;0.50;;;25.60;55.40;;;;;;4993417;28;20118;-83
2022/07/14 11:31:12;;;;;;;2.08;0.40;;;25.60;54.80;;;;;;4992764;28;20398;-85
2022/07/14 11:36:25;;;;;;;2.47;0.38;;;25.90;53.90;;;;;;4994556;28;20085;-87
2022/07/14 11:39:10;;;;;;;3.25;0.40;;;26.00;53.50;;;;;;4993290;28;20434;-85
2022/07/14 11:41:48;;;;;;;2.15;0.40;;;26.10;53.10;;;;;;4992694;28;20030;-87
2022/07/14 11:44:33;;;;;;;1.50;0.30;;;26.30;52.60;;;;;;4992512;28;20084;-83
2022/07/14 11:47:00;;;;;;;2.03;0.45;;;26.40;51.80;;;;;;4993455;28;20098;-84
2022/07/14 11:49:26;;;;;;;1.60;0.35;;;26.40;51.80;;;;;;5008809;28;20022;-88
2022/07/14 11:51:56;;;;;;;4.22;0.40;;;26.50;51.50;;;;;;4992624;28;20491;-86
2022/07/14 11:54:23;;;;;;;4.47;0.70;;;26.60;51.10;;;;;;4992565;28;20049;-86
2022/07/14 11:56:49;;;;;;;2.90;0.30;;;26.60;50.40;;;;;;4992444;28;20387;-85
2022/07/14 11:59:19;;;;;;;1.20;0.30;;;26.70;50.10;;;;;;4992840;28;20030;-86
2022/07/14 12:01:45;;;;;;;3.33;0.45;;;26.80;49.70;;;;;;4992548;28;20033;-86
2022/07/14 12:04:11;;;;;;;1.52;0.30;;;26.90;49.50;;;;;;5011161;28;20026;-84
2022/07/14 12:06:43;;;;;;;3.55;0.45;;;26.90;49.30;;;;;;4995918;28;20040;-85
2022/07/14 12:09:09;;;;;;;3.97;0.60;;;27.00;49.20;;;;;;4996279;28;20378;-82
2022/07/14 12:11:36;;;;;;;1.63;0.30;;;27.10;49.20;;;;;;5011848;28;20038;-83
2022/07/14 12:14:02;;;;;;;1.45;0.35;;;27.20;48.90;;;;;;4995519;28;20035;-82
2022/07/14 12:16:41;;;;;;;2.83;0.30;;;27.30;48.80;;;;;;4996588;28;20022;-83
2022/07/14 12:19:07;;;;;;;1.95;0.40;;;27.40;48.80;;;;;;4995228;28;20043;-81
2022/07/14 12:21:34;;;;;;;3.10;0.40;;;27.50;48.90;;;;;;4995415;28;20542;-83
2022/07/14 12:24:01;;;;;;;2.65;0.40;;;27.60;48.80;;;;;;4995433;28;20022;-82
2022/07/14 12:26:27;;;;;;;3.22;0.50;;;27.70;48.60;;;;;;4995293;28;20030;-82
2022/07/14 12:28:55;;;;;;;1.95;0.30;;;27.80;48.30;;;;;;4995546;28;20019;-87
2022/07/14 12:31:22;;;;;;;4.35;0.52;;;27.90;48.20;;;;;;4995630;28;20038;-84
2022/07/14 12:33:51;;;;;;;3.28;0.50;;;28.10;48.30;;;;;;5011527;28;20037;-88
2022/07/14 12:36:20;;;;;;;5.07;0.50;;;28.30;48.00;;;;;;4995440;28;20061;-84
2022/07/14 12:38:46;;;;;;;1.73;0.30;;;28.40;47.70;;;;;;4995978;28;20478;-85
2022/07/14 12:41:17;;;;;;;2.10;0.40;;;28.70;47.50;;;;;;5011450;28;20046;-85
2022/07/14 12:43:43;;;;;;;0.98;0.38;;;28.80;47.00;;;;;;4995893;28;20022;-88
2022/07/14 12:46:15;;;;;;;2.58;0.40;;;29.00;46.90;;;;;;4995488;28;20117;-85
2022/07/14 12:48:50;;;;;;;3.72;0.40;;;29.20;46.70;;;;;;4995039;28;20382;-84
2022/07/14 12:51:42;;;;;;;1.95;0.65;;;29.40;46.00;;;;;;4997048;28;20128;-87
2022/07/14 12:54:15;;;;;;;2.70;0.50;;;29.70;45.40;;;;;;4992751;28;20041;-83
2022/07/14 12:56:41;;;;;;;2.92;0.40;;;29.90;45.60;;;;;;4994076;28;20031;-84
2022/07/14 12:59:12;;;;;;;1.63;0.43;;;30.10;45.60;;;;;;4995321;28;20173;-84
2022/07/14 13:01:58;;;;;;;1.42;0.32;;;30.30;45.30;;;;;;4995003;28;20027;-84
2022/07/14 13:04:47;;;;;;;2.03;0.40;;;30.70;44.50;;;;;;4995119;28;20026;-81
2022/07/14 13:07:13;;;;;;;1.90;0.30;;;30.80;44.00;;;;;;4996484;28;20018;-80